sensor_id;sensor_type;location;lat;lon;timestamp;P1;durP1;ratioP1;P2;durP2;ratioP2
52248;SDS011;38541;48.130;8.378;2023-04-26T00:01:09;1.25;;;1.17;;
52248;SDS011;38541;48.130;8.378;2023-04-26T00:03:36;1.52;;;1.42;;
52248;SDS011;38541;48.130;8.378;2023-04-26T00:06:03;1.30;;;1.17;;
52248;SDS011;38541;48.130;8.378;2023-04-26T00:08:34;1.83;;;1.65;;
52248;SDS011;38541;48.130;8.378;2023-04-26T00:11:00;1.60;;;1.20;;
52248;SDS011;38541;48.130;8.378;2023-04-26T00:13:27;1.80;;;1.50;;
52248;SDS011;38541;48.130;8.378;2023-04-26T00:15:53;1.30;;;1.20;;
52248;SDS011;38541;48.130;8.378;2023-04-26T00:18:20;1.42;;;1.33;;
52248;SDS011;38541;48.130;8.378;2023-04-26T00:20:46;1.50;;;1.40;;
52248;SDS011;38541;48.130;8.378;2023-04-26T00:23:13;1.77;;;1.50;;
52248;SDS011;38541;48.130;8.378;2023-04-26T00:25:39;1.25;;;1.15;;
52248;SDS011;38541;48.130;8.378;2023-04-26T00:28:06;1.10;;;1.10;;
52248;SDS011;38541;48.130;8.378;2023-04-26T00:30:34;1.60;;;1.50;;
52248;SDS011;38541;48.130;8.378;2023-04-26T00:33:02;1.50;;;1.40;;
52248;SDS011;38541;48.130;8.378;2023-04-26T00:35:29;1.45;;;1.25;;
52248;SDS011;38541;48.130;8.378;2023-04-26T00:37:56;1.70;;;1.60;;
52248;SDS011;38541;48.130;8.378;2023-04-26T00:40:22;1.88;;;1.77;;
52248;SDS011;38541;48.130;8.378;2023-04-26T00:42:55;2.15;;;1.98;;
52248;SDS011;38541;48.130;8.378;2023-04-26T00:45:22;2.03;;;1.80;;
52248;SDS011;38541;48.130;8.378;2023-04-26T00:47:49;1.88;;;1.60;;
52248;SDS011;38541;48.130;8.378;2023-04-26T00:50:16;2.05;;;1.63;;
52248;SDS011;38541;48.130;8.378;2023-04-26T00:52:44;1.60;;;1.50;;
52248;SDS011;38541;48.130;8.378;2023-04-26T00:55:12;1.73;;;1.63;;
52248;SDS011;38541;48.130;8.378;2023-04-26T00:57:39;1.55;;;1.45;;
52248;SDS011;38541;48.130;8.378;2023-04-26T01:00:06;1.70;;;1.60;;
52248;SDS011;38541;48.130;8.378;2023-04-26T01:02:33;1.90;;;1.80;;
52248;SDS011;38541;48.130;8.378;2023-04-26T01:05:00;2.40;;;2.20;;
52248;SDS011;38541;48.130;8.378;2023-04-26T01:07:26;2.03;;;1.85;;
52248;SDS011;38541;48.130;8.378;2023-04-26T01:09:53;1.98;;;1.88;;
52248;SDS011;38541;48.130;8.378;2023-04-26T01:12:21;2.08;;;1.60;;
52248;SDS011;38541;48.130;8.378;2023-04-26T01:14:49;2.05;;;1.95;;
52248;SDS011;38541;48.130;8.378;2023-04-26T01:17:17;1.77;;;1.67;;
52248;SDS011;38541;48.130;8.378;2023-04-26T01:19:45;1.80;;;1.70;;
52248;SDS011;38541;48.130;8.378;2023-04-26T01:22:13;2.88;;;2.17;;
52248;SDS011;38541;48.130;8.378;2023-04-26T01:24:44;1.40;;;1.30;;
52248;SDS011;38541;48.130;8.378;2023-04-26T01:27:13;1.83;;;1.65;;
52248;SDS011;38541;48.130;8.378;2023-04-26T01:29:40;1.90;;;1.70;;
52248;SDS011;38541;48.130;8.378;2023-04-26T01:32:06;1.90;;;1.73;;
52248;SDS011;38541;48.130;8.378;2023-04-26T01:34:33;1.80;;;1.70;;
52248;SDS011;38541;48.130;8.378;2023-04-26T01:36:59;1.88;;;1.77;;
52248;SDS011;38541;48.130;8.378;2023-04-26T01:39:26;1.50;;;1.40;;
52248;SDS011;38541;48.130;8.378;2023-04-26T01:41:53;1.70;;;1.60;;
52248;SDS011;38541;48.130;8.378;2023-04-26T01:44:19;2.10;;;2.00;;
52248;SDS011;38541;48.130;8.378;2023-04-26T01:46:46;1.48;;;1.38;;
52248;SDS011;38541;48.130;8.378;2023-04-26T01:49:12;1.60;;;1.50;;
52248;SDS011;38541;48.130;8.378;2023-04-26T01:51:39;1.42;;;1.33;;
52248;SDS011;38541;48.130;8.378;2023-04-26T01:54:05;7.05;;;1.50;;
52248;SDS011;38541;48.130;8.378;2023-04-26T01:56:32;1.70;;;1.60;;
52248;SDS011;38541;48.130;8.378;2023-04-26T01:58:59;1.80;;;1.67;;
52248;SDS011;38541;48.130;8.378;2023-04-26T02:01:26;1.70;;;1.60;;
52248;SDS011;38541;48.130;8.378;2023-04-26T02:03:53;1.80;;;1.70;;
52248;SDS011;38541;48.130;8.378;2023-04-26T02:06:19;2.00;;;1.90;;
52248;SDS011;38541;48.130;8.378;2023-04-26T02:08:46;1.85;;;1.75;;
52248;SDS011;38541;48.130;8.378;2023-04-26T02:11:13;2.28;;;1.90;;
52248;SDS011;38541;48.130;8.378;2023-04-26T02:13:39;2.03;;;1.90;;
52248;SDS011;38541;48.130;8.378;2023-04-26T02:16:05;2.25;;;1.75;;
52248;SDS011;38541;48.130;8.378;2023-04-26T02:18:33;2.30;;;2.10;;
52248;SDS011;38541;48.130;8.378;2023-04-26T02:20:59;2.75;;;2.10;;
52248;SDS011;38541;48.130;8.378;2023-04-26T02:23:26;1.90;;;1.75;;
52248;SDS011;38541;48.130;8.378;2023-04-26T02:25:52;2.22;;;2.03;;
52248;SDS011;38541;48.130;8.378;2023-04-26T02:28:19;2.28;;;2.08;;
52248;SDS011;38541;48.130;8.378;2023-04-26T02:30:46;2.35;;;2.17;;
52248;SDS011;38541;48.130;8.378;2023-04-26T02:33:12;2.20;;;2.00;;
52248;SDS011;38541;48.130;8.378;2023-04-26T02:35:39;2.47;;;2.28;;
52248;SDS011;38541;48.130;8.378;2023-04-26T02:38:06;2.67;;;2.28;;
52248;SDS011;38541;48.130;8.378;2023-04-26T02:40:33;2.22;;;2.00;;
52248;SDS011;38541;48.130;8.378;2023-04-26T02:43:01;1.92;;;1.83;;
52248;SDS011;38541;48.130;8.378;2023-04-26T02:45:27;2.00;;;1.83;;
52248;SDS011;38541;48.130;8.378;2023-04-26T02:47:54;1.83;;;1.73;;
52248;SDS011;38541;48.130;8.378;2023-04-26T02:50:21;1.80;;;1.70;;
52248;SDS011;38541;48.130;8.378;2023-04-26T02:52:48;2.20;;;2.08;;
52248;SDS011;38541;48.130;8.378;2023-04-26T02:55:15;1.98;;;1.88;;
52248;SDS011;38541;48.130;8.378;2023-04-26T02:57:41;1.90;;;1.80;;
52248;SDS011;38541;48.130;8.378;2023-04-26T03:00:09;1.80;;;1.70;;
52248;SDS011;38541;48.130;8.378;2023-04-26T03:02:39;1.92;;;1.83;;
52248;SDS011;38541;48.130;8.378;2023-04-26T03:05:06;2.42;;;2.22;;
52248;SDS011;38541;48.130;8.378;2023-04-26T03:07:34;1.90;;;1.80;;
52248;SDS011;38541;48.130;8.378;2023-04-26T03:10:01;2.03;;;1.85;;
52248;SDS011;38541;48.130;8.378;2023-04-26T03:12:28;1.75;;;1.65;;
52248;SDS011;38541;48.130;8.378;2023-04-26T03:14:54;1.80;;;1.70;;
52248;SDS011;38541;48.130;8.378;2023-04-26T03:17:23;2.28;;;2.00;;
52248;SDS011;38541;48.130;8.378;2023-04-26T03:19:49;1.63;;;1.52;;
52248;SDS011;38541;48.130;8.378;2023-04-26T03:22:16;1.50;;;1.40;;
52248;SDS011;38541;48.130;8.378;2023-04-26T03:24:43;1.85;;;1.75;;
52248;SDS011;38541;48.130;8.378;2023-04-26T03:27:10;1.60;;;1.50;;
52248;SDS011;38541;48.130;8.378;2023-04-26T03:29:37;1.70;;;1.60;;
52248;SDS011;38541;48.130;8.378;2023-04-26T03:32:04;1.70;;;1.60;;
52248;SDS011;38541;48.130;8.378;2023-04-26T03:34:32;2.22;;;2.03;;
52248;SDS011;38541;48.130;8.378;2023-04-26T03:36:59;2.38;;;1.70;;
52248;SDS011;38541;48.130;8.378;2023-04-26T03:39:25;2.65;;;1.88;;
52248;SDS011;38541;48.130;8.378;2023-04-26T03:41:52;1.95;;;1.73;;
52248;SDS011;38541;48.130;8.378;2023-04-26T03:44:18;1.70;;;1.60;;
52248;SDS011;38541;48.130;8.378;2023-04-26T03:46:44;2.47;;;2.28;;
52248;SDS011;38541;48.130;8.378;2023-04-26T03:49:11;3.08;;;2.00;;
52248;SDS011;38541;48.130;8.378;2023-04-26T03:51:37;2.20;;;2.00;;
52248;SDS011;38541;48.130;8.378;2023-04-26T03:54:04;2.63;;;2.42;;
52248;SDS011;38541;48.130;8.378;2023-04-26T03:56:31;4.80;;;2.67;;
52248;SDS011;38541;48.130;8.378;2023-04-26T03:58:58;2.40;;;2.20;;
52248;SDS011;38541;48.130;8.378;2023-04-26T04:01:25;3.35;;;3.05;;
52248;SDS011;38541;48.130;8.378;2023-04-26T04:03:52;2.80;;;2.60;;
52248;SDS011;38541;48.130;8.378;2023-04-26T04:06:19;3.00;;;2.80;;
52248;SDS011;38541;48.130;8.378;2023-04-26T04:08:46;3.65;;;3.35;;
52248;SDS011;38541;48.130;8.378;2023-04-26T04:11:13;2.45;;;2.25;;
52248;SDS011;38541;48.130;8.378;2023-04-26T04:13:42;5.00;;;2.67;;
52248;SDS011;38541;48.130;8.378;2023-04-26T04:16:08;2.90;;;2.60;;
52248;SDS011;38541;48.130;8.378;2023-04-26T04:18:35;2.55;;;2.35;;
52248;SDS011;38541;48.130;8.378;2023-04-26T04:21:02;3.10;;;2.60;;
52248;SDS011;38541;48.130;8.378;2023-04-26T04:23:29;2.85;;;2.60;;
52248;SDS011;38541;48.130;8.378;2023-04-26T04:25:56;3.63;;;2.88;;
52248;SDS011;38541;48.130;8.378;2023-04-26T04:28:22;3.45;;;2.53;;
52248;SDS011;38541;48.130;8.378;2023-04-26T04:30:49;2.80;;;2.60;;
52248;SDS011;38541;48.130;8.378;2023-04-26T04:33:16;2.28;;;2.13;;
52248;SDS011;38541;48.130;8.378;2023-04-26T04:35:43;2.97;;;2.65;;
52248;SDS011;38541;48.130;8.378;2023-04-26T04:38:09;2.63;;;2.40;;
52248;SDS011;38541;48.130;8.378;2023-04-26T04:40:36;2.30;;;2.10;;
52248;SDS011;38541;48.130;8.378;2023-04-26T04:43:03;2.05;;;1.95;;
52248;SDS011;38541;48.130;8.378;2023-04-26T04:45:30;2.83;;;2.40;;
52248;SDS011;38541;48.130;8.378;2023-04-26T04:47:58;4.22;;;2.75;;
52248;SDS011;38541;48.130;8.378;2023-04-26T04:50:25;3.13;;;2.70;;
52248;SDS011;38541;48.130;8.378;2023-04-26T04:52:52;3.28;;;2.97;;
52248;SDS011;38541;48.130;8.378;2023-04-26T04:55:18;6.32;;;4.28;;
52248;SDS011;38541;48.130;8.378;2023-04-26T04:57:45;8.32;;;5.38;;
52248;SDS011;38541;48.130;8.378;2023-04-26T05:00:11;5.28;;;3.85;;
52248;SDS011;38541;48.130;8.378;2023-04-26T05:02:44;8.10;;;5.30;;
52248;SDS011;38541;48.130;8.378;2023-04-26T05:05:11;5.32;;;4.22;;
52248;SDS011;38541;48.130;8.378;2023-04-26T05:07:38;7.20;;;3.55;;
52248;SDS011;38541;48.130;8.378;2023-04-26T05:10:05;3.47;;;3.17;;
52248;SDS011;38541;48.130;8.378;2023-04-26T05:12:32;5.13;;;3.63;;
52248;SDS011;38541;48.130;8.378;2023-04-26T05:14:59;5.75;;;4.32;;
52248;SDS011;38541;48.130;8.378;2023-04-26T05:17:26;9.75;;;5.78;;
52248;SDS011;38541;48.130;8.378;2023-04-26T05:19:53;6.60;;;5.05;;
52248;SDS011;38541;48.130;8.378;2023-04-26T05:22:20;8.52;;;4.68;;
52248;SDS011;38541;48.130;8.378;2023-04-26T05:24:48;8.60;;;5.20;;
52248;SDS011;38541;48.130;8.378;2023-04-26T05:27:14;5.18;;;4.15;;
52248;SDS011;38541;48.130;8.378;2023-04-26T05:29:49;5.43;;;4.88;;
52248;SDS011;38541;48.130;8.378;2023-04-26T05:32:28;7.90;;;4.28;;
52248;SDS011;38541;48.130;8.378;2023-04-26T05:35:15;4.45;;;3.97;;
52248;SDS011;38541;48.130;8.378;2023-04-26T05:37:43;5.10;;;3.83;;
52248;SDS011;38541;48.130;8.378;2023-04-26T05:40:11;5.72;;;3.85;;
52248;SDS011;38541;48.130;8.378;2023-04-26T05:42:38;4.63;;;4.07;;
52248;SDS011;38541;48.130;8.378;2023-04-26T05:45:06;5.32;;;4.50;;
52248;SDS011;38541;48.130;8.378;2023-04-26T05:47:33;5.00;;;4.50;;
52248;SDS011;38541;48.130;8.378;2023-04-26T05:50:00;4.30;;;3.90;;
52248;SDS011;38541;48.130;8.378;2023-04-26T05:52:26;4.40;;;4.00;;
52248;SDS011;38541;48.130;8.378;2023-04-26T05:54:53;5.30;;;4.22;;
52248;SDS011;38541;48.130;8.378;2023-04-26T05:57:19;5.82;;;4.20;;
52248;SDS011;38541;48.130;8.378;2023-04-26T05:59:46;5.03;;;4.45;;
52248;SDS011;38541;48.130;8.378;2023-04-26T06:02:14;5.00;;;3.97;;
52248;SDS011;38541;48.130;8.378;2023-04-26T06:04:40;4.82;;;3.83;;
52248;SDS011;38541;48.130;8.378;2023-04-26T06:07:11;5.25;;;4.03;;
52248;SDS011;38541;48.130;8.378;2023-04-26T06:09:38;5.32;;;3.92;;
52248;SDS011;38541;48.130;8.378;2023-04-26T06:12:04;4.07;;;3.67;;
52248;SDS011;38541;48.130;8.378;2023-04-26T06:14:35;4.28;;;3.88;;
52248;SDS011;38541;48.130;8.378;2023-04-26T06:17:06;5.43;;;4.30;;
52248;SDS011;38541;48.130;8.378;2023-04-26T06:19:32;3.75;;;3.45;;
52248;SDS011;38541;48.130;8.378;2023-04-26T06:21:59;4.05;;;3.55;;
52248;SDS011;38541;48.130;8.378;2023-04-26T06:24:26;3.75;;;3.35;;
52248;SDS011;38541;48.130;8.378;2023-04-26T06:26:52;3.22;;;2.78;;
52248;SDS011;38541;48.130;8.378;2023-04-26T06:29:19;3.58;;;3.10;;
52248;SDS011;38541;48.130;8.378;2023-04-26T06:31:47;3.28;;;2.90;;
52248;SDS011;38541;48.130;8.378;2023-04-26T06:34:14;3.88;;;3.58;;
52248;SDS011;38541;48.130;8.378;2023-04-26T06:36:41;3.97;;;3.42;;
52248;SDS011;38541;48.130;8.378;2023-04-26T06:39:08;5.00;;;2.72;;
52248;SDS011;38541;48.130;8.378;2023-04-26T06:41:37;3.15;;;2.03;;
52248;SDS011;38541;48.130;8.378;2023-04-26T06:44:03;7.63;;;2.05;;
52248;SDS011;38541;48.130;8.378;2023-04-26T06:46:30;4.00;;;2.30;;
52248;SDS011;38541;48.130;8.378;2023-04-26T06:48:56;2.33;;;2.00;;
52248;SDS011;38541;48.130;8.378;2023-04-26T06:51:23;2.33;;;2.13;;
52248;SDS011;38541;48.130;8.378;2023-04-26T06:53:50;2.28;;;2.08;;
52248;SDS011;38541;48.130;8.378;2023-04-26T06:56:18;1.85;;;1.75;;
52248;SDS011;38541;48.130;8.378;2023-04-26T06:59:01;2.28;;;1.92;;
52248;SDS011;38541;48.130;8.378;2023-04-26T07:01:29;2.22;;;2.03;;
52248;SDS011;38541;48.130;8.378;2023-04-26T07:03:59;1.85;;;1.75;;
52248;SDS011;38541;48.130;8.378;2023-04-26T07:06:29;2.50;;;1.80;;
52248;SDS011;38541;48.130;8.378;2023-04-26T07:08:59;5.03;;;2.40;;
52248;SDS011;38541;48.130;8.378;2023-04-26T07:11:27;2.58;;;2.28;;
52248;SDS011;38541;48.130;8.378;2023-04-26T07:13:54;2.22;;;1.90;;
52248;SDS011;38541;48.130;8.378;2023-04-26T07:16:21;2.85;;;2.33;;
52248;SDS011;38541;48.130;8.378;2023-04-26T07:18:47;2.45;;;2.25;;
52248;SDS011;38541;48.130;8.378;2023-04-26T07:21:14;3.70;;;2.40;;
52248;SDS011;38541;48.130;8.378;2023-04-26T07:23:41;2.63;;;2.42;;
52248;SDS011;38541;48.130;8.378;2023-04-26T07:26:09;2.55;;;2.35;;
52248;SDS011;38541;48.130;8.378;2023-04-26T07:28:36;2.90;;;2.13;;
52248;SDS011;38541;48.130;8.378;2023-04-26T07:31:03;5.95;;;3.75;;
52248;SDS011;38541;48.130;8.378;2023-04-26T07:33:33;10.07;;;4.78;;
52248;SDS011;38541;48.130;8.378;2023-04-26T07:35:59;6.22;;;4.82;;
52248;SDS011;38541;48.130;8.378;2023-04-26T07:38:26;7.70;;;3.55;;
52248;SDS011;38541;48.130;8.378;2023-04-26T07:40:54;4.80;;;3.60;;
52248;SDS011;38541;48.130;8.378;2023-04-26T07:43:21;4.80;;;3.40;;
52248;SDS011;38541;48.130;8.378;2023-04-26T07:45:48;4.43;;;3.17;;
52248;SDS011;38541;48.130;8.378;2023-04-26T07:48:14;4.30;;;3.33;;
52248;SDS011;38541;48.130;8.378;2023-04-26T07:50:41;3.58;;;2.95;;
52248;SDS011;38541;48.130;8.378;2023-04-26T07:53:08;3.20;;;2.90;;
52248;SDS011;38541;48.130;8.378;2023-04-26T07:55:34;3.17;;;2.83;;
52248;SDS011;38541;48.130;8.378;2023-04-26T07:58:02;2.88;;;2.67;;
52248;SDS011;38541;48.130;8.378;2023-04-26T08:00:29;4.75;;;2.65;;
52248;SDS011;38541;48.130;8.378;2023-04-26T08:02:56;3.50;;;3.00;;
52248;SDS011;38541;48.130;8.378;2023-04-26T08:05:23;3.13;;;2.83;;
52248;SDS011;38541;48.130;8.378;2023-04-26T08:07:49;3.10;;;2.72;;
52248;SDS011;38541;48.130;8.378;2023-04-26T08:10:16;3.47;;;2.95;;
52248;SDS011;38541;48.130;8.378;2023-04-26T08:12:42;2.95;;;2.65;;
52248;SDS011;38541;48.130;8.378;2023-04-26T08:15:09;4.28;;;3.58;;
52248;SDS011;38541;48.130;8.378;2023-04-26T08:17:36;3.40;;;3.05;;
52248;SDS011;38541;48.130;8.378;2023-04-26T08:20:03;5.38;;;3.08;;
52248;SDS011;38541;48.130;8.378;2023-04-26T08:22:34;4.30;;;2.67;;
52248;SDS011;38541;48.130;8.378;2023-04-26T08:25:01;3.08;;;2.78;;
52248;SDS011;38541;48.130;8.378;2023-04-26T08:27:27;3.65;;;2.92;;
52248;SDS011;38541;48.130;8.378;2023-04-26T08:29:54;2.10;;;1.90;;
52248;SDS011;38541;48.130;8.378;2023-04-26T08:32:20;2.67;;;2.40;;
52248;SDS011;38541;48.130;8.378;2023-04-26T08:34:47;3.47;;;2.85;;
52248;SDS011;38541;48.130;8.378;2023-04-26T08:37:14;2.20;;;2.00;;
52248;SDS011;38541;48.130;8.378;2023-04-26T08:39:40;4.30;;;2.30;;
52248;SDS011;38541;48.130;8.378;2023-04-26T08:42:14;2.38;;;2.17;;
52248;SDS011;38541;48.130;8.378;2023-04-26T08:44:41;2.45;;;2.20;;
52248;SDS011;38541;48.130;8.378;2023-04-26T08:47:13;6.15;;;3.03;;
52248;SDS011;38541;48.130;8.378;2023-04-26T08:49:43;2.60;;;2.38;;
52248;SDS011;38541;48.130;8.378;2023-04-26T08:52:13;2.92;;;2.28;;
52248;SDS011;38541;48.130;8.378;2023-04-26T08:54:42;3.33;;;2.13;;
52248;SDS011;38541;48.130;8.378;2023-04-26T08:57:11;2.95;;;2.42;;
52248;SDS011;38541;48.130;8.378;2023-04-26T08:59:38;2.35;;;2.03;;
52248;SDS011;38541;48.130;8.378;2023-04-26T09:02:05;4.13;;;2.05;;
52248;SDS011;38541;48.130;8.378;2023-04-26T09:04:32;2.25;;;2.05;;
52248;SDS011;38541;48.130;8.378;2023-04-26T09:07:00;3.08;;;2.78;;
52248;SDS011;38541;48.130;8.378;2023-04-26T09:09:35;2.55;;;2.22;;
52248;SDS011;38541;48.130;8.378;2023-04-26T09:12:04;2.37;;;2.00;;
52248;SDS011;38541;48.130;8.378;2023-04-26T09:14:31;2.95;;;1.98;;
52248;SDS011;38541;48.130;8.378;2023-04-26T09:16:57;1.88;;;1.77;;
52248;SDS011;38541;48.130;8.378;2023-04-26T09:19:40;2.25;;;2.05;;
52248;SDS011;38541;48.130;8.378;2023-04-26T09:22:10;2.28;;;2.08;;
52248;SDS011;38541;48.130;8.378;2023-04-26T09:27:13;1.98;;;1.63;;
52248;SDS011;38541;48.130;8.378;2023-04-26T09:35:31;3.17;;;1.70;;
52248;SDS011;38541;48.130;8.378;2023-04-26T09:38:08;1.77;;;1.60;;
52248;SDS011;38541;48.130;8.378;2023-04-26T09:40:39;1.65;;;1.45;;
52248;SDS011;38541;48.130;8.378;2023-04-26T09:43:16;2.25;;;2.05;;
52248;SDS011;38541;48.130;8.378;2023-04-26T09:50:51;2.08;;;1.88;;
52248;SDS011;38541;48.130;8.378;2023-04-26T09:53:26;1.60;;;1.50;;
52248;SDS011;38541;48.130;8.378;2023-04-26T09:55:56;2.00;;;1.60;;
52248;SDS011;38541;48.130;8.378;2023-04-26T09:58:33;1.92;;;1.80;;
52248;SDS011;38541;48.130;8.378;2023-04-26T10:01:00;3.17;;;1.98;;
52248;SDS011;38541;48.130;8.378;2023-04-26T10:03:28;2.08;;;1.88;;
52248;SDS011;38541;48.130;8.378;2023-04-26T10:05:57;2.30;;;2.10;;
52248;SDS011;38541;48.130;8.378;2023-04-26T10:08:24;2.38;;;2.17;;
52248;SDS011;38541;48.130;8.378;2023-04-26T10:10:50;1.73;;;1.63;;
52248;SDS011;38541;48.130;8.378;2023-04-26T10:13:18;2.00;;;1.90;;
52248;SDS011;38541;48.130;8.378;2023-04-26T10:15:44;1.63;;;1.52;;
52248;SDS011;38541;48.130;8.378;2023-04-26T10:18:12;3.30;;;1.50;;
52248;SDS011;38541;48.130;8.378;2023-04-26T10:20:39;1.95;;;1.77;;
52248;SDS011;38541;48.130;8.378;2023-04-26T10:23:11;1.75;;;1.23;;
52248;SDS011;38541;48.130;8.378;2023-04-26T10:25:45;2.42;;;1.67;;
52248;SDS011;38541;48.130;8.378;2023-04-26T10:28:12;2.67;;;1.70;;
52248;SDS011;38541;48.130;8.378;2023-04-26T10:30:55;3.55;;;1.80;;
52248;SDS011;38541;48.130;8.378;2023-04-26T10:33:25;2.33;;;1.88;;
52248;SDS011;38541;48.130;8.378;2023-04-26T10:35:59;2.10;;;1.70;;
52248;SDS011;38541;48.130;8.378;2023-04-26T10:38:28;1.75;;;1.50;;
52248;SDS011;38541;48.130;8.378;2023-04-26T10:40:54;1.55;;;1.30;;
52248;SDS011;38541;48.130;8.378;2023-04-26T10:43:26;5.63;;;1.52;;
52248;SDS011;38541;48.130;8.378;2023-04-26T10:45:52;1.92;;;1.50;;
52248;SDS011;38541;48.130;8.378;2023-04-26T10:48:28;3.50;;;2.17;;
52248;SDS011;38541;48.130;8.378;2023-04-26T10:56:09;1.10;;;1.10;;
52248;SDS011;38541;48.130;8.378;2023-04-26T10:58:39;2.65;;;1.50;;
52248;SDS011;38541;48.130;8.378;2023-04-26T11:01:07;1.30;;;1.20;;
52248;SDS011;38541;48.130;8.378;2023-04-26T11:03:42;1.33;;;1.23;;
52248;SDS011;38541;48.130;8.378;2023-04-26T11:06:29;2.97;;;1.40;;
52248;SDS011;38541;48.130;8.378;2023-04-26T11:09:32;1.67;;;1.58;;
52248;SDS011;38541;48.130;8.378;2023-04-26T11:12:10;1.15;;;1.05;;
52248;SDS011;38541;48.130;8.378;2023-04-26T11:14:40;1.58;;;1.48;;
52248;SDS011;38541;48.130;8.378;2023-04-26T11:17:07;2.70;;;1.73;;
52248;SDS011;38541;48.130;8.378;2023-04-26T11:19:34;1.27;;;1.17;;
52248;SDS011;38541;48.130;8.378;2023-04-26T11:22:01;1.27;;;1.17;;
52248;SDS011;38541;48.130;8.378;2023-04-26T11:24:32;1.77;;;1.30;;
52248;SDS011;38541;48.130;8.378;2023-04-26T11:27:06;1.15;;;1.08;;
52248;SDS011;38541;48.130;8.378;2023-04-26T11:29:34;1.75;;;1.65;;
52248;SDS011;38541;48.130;8.378;2023-04-26T11:32:01;1.35;;;1.27;;
52248;SDS011;38541;48.130;8.378;2023-04-26T11:34:31;1.35;;;1.25;;
52248;SDS011;38541;48.130;8.378;2023-04-26T11:37:02;1.50;;;1.25;;
52248;SDS011;38541;48.130;8.378;2023-04-26T11:39:33;1.42;;;1.33;;
52248;SDS011;38541;48.130;8.378;2023-04-26T11:42:09;2.05;;;1.70;;
52248;SDS011;38541;48.130;8.378;2023-04-26T11:44:38;1.90;;;1.38;;
52248;SDS011;38541;48.130;8.378;2023-04-26T11:47:06;1.20;;;1.10;;
52248;SDS011;38541;48.130;8.378;2023-04-26T11:49:35;1.52;;;1.10;;
52248;SDS011;38541;48.130;8.378;2023-04-26T11:52:03;2.78;;;1.30;;
52248;SDS011;38541;48.130;8.378;2023-04-26T11:54:32;1.65;;;1.30;;
52248;SDS011;38541;48.130;8.378;2023-04-26T11:56:59;3.70;;;1.33;;
52248;SDS011;38541;48.130;8.378;2023-04-26T11:59:28;3.80;;;1.85;;
52248;SDS011;38541;48.130;8.378;2023-04-26T12:01:56;1.10;;;1.00;;
52248;SDS011;38541;48.130;8.378;2023-04-26T12:04:27;1.83;;;1.27;;
52248;SDS011;38541;48.130;8.378;2023-04-26T12:06:57;2.63;;;1.63;;
52248;SDS011;38541;48.130;8.378;2023-04-26T12:09:25;2.17;;;1.70;;
52248;SDS011;38541;48.130;8.378;2023-04-26T12:11:56;2.50;;;1.42;;
52248;SDS011;38541;48.130;8.378;2023-04-26T12:14:36;1.38;;;1.05;;
52248;SDS011;38541;48.130;8.378;2023-04-26T12:17:05;2.92;;;1.75;;
52248;SDS011;38541;48.130;8.378;2023-04-26T12:19:35;1.30;;;1.20;;
52248;SDS011;38541;48.130;8.378;2023-04-26T12:22:03;2.03;;;1.35;;
52248;SDS011;38541;48.130;8.378;2023-04-26T12:24:33;2.03;;;1.60;;
52248;SDS011;38541;48.130;8.378;2023-04-26T12:27:02;1.75;;;1.65;;
52248;SDS011;38541;48.130;8.378;2023-04-26T12:29:31;1.83;;;1.70;;
52248;SDS011;38541;48.130;8.378;2023-04-26T12:31:59;3.40;;;1.65;;
52248;SDS011;38541;48.130;8.378;2023-04-26T12:34:26;1.50;;;1.40;;
52248;SDS011;38541;48.130;8.378;2023-04-26T12:36:53;3.30;;;1.60;;
52248;SDS011;38541;48.130;8.378;2023-04-26T12:39:21;2.53;;;1.23;;
52248;SDS011;38541;48.130;8.378;2023-04-26T12:41:47;1.65;;;1.50;;
52248;SDS011;38541;48.130;8.378;2023-04-26T12:44:14;2.10;;;1.55;;
52248;SDS011;38541;48.130;8.378;2023-04-26T12:46:41;2.10;;;1.50;;
52248;SDS011;38541;48.130;8.378;2023-04-26T12:49:08;4.20;;;1.70;;
52248;SDS011;38541;48.130;8.378;2023-04-26T12:51:34;3.20;;;1.80;;
52248;SDS011;38541;48.130;8.378;2023-04-26T12:54:01;2.20;;;1.58;;
52248;SDS011;38541;48.130;8.378;2023-04-26T12:56:28;2.03;;;1.60;;
52248;SDS011;38541;48.130;8.378;2023-04-26T12:58:55;2.58;;;1.65;;
52248;SDS011;38541;48.130;8.378;2023-04-26T13:01:21;1.40;;;1.30;;
52248;SDS011;38541;48.130;8.378;2023-04-26T13:03:48;2.28;;;1.80;;
52248;SDS011;38541;48.130;8.378;2023-04-26T13:06:15;1.73;;;1.63;;
52248;SDS011;38541;48.130;8.378;2023-04-26T13:08:42;1.90;;;1.80;;
52248;SDS011;38541;48.130;8.378;2023-04-26T13:11:08;1.98;;;1.77;;
52248;SDS011;38541;48.130;8.378;2023-04-26T13:13:35;2.53;;;2.00;;
52248;SDS011;38541;48.130;8.378;2023-04-26T13:16:09;5.43;;;2.88;;
52248;SDS011;38541;48.130;8.378;2023-04-26T13:18:37;4.43;;;2.10;;
52248;SDS011;38541;48.130;8.378;2023-04-26T13:21:03;2.95;;;2.15;;
52248;SDS011;38541;48.130;8.378;2023-04-26T13:23:30;1.85;;;1.40;;
52248;SDS011;38541;48.130;8.378;2023-04-26T13:25:57;4.20;;;2.05;;
52248;SDS011;38541;48.130;8.378;2023-04-26T13:28:23;1.65;;;1.55;;
52248;SDS011;38541;48.130;8.378;2023-04-26T13:30:49;2.30;;;1.70;;
52248;SDS011;38541;48.130;8.378;2023-04-26T13:33:17;1.63;;;1.52;;
52248;SDS011;38541;48.130;8.378;2023-04-26T13:35:47;2.22;;;1.50;;
52248;SDS011;38541;48.130;8.378;2023-04-26T13:38:13;2.67;;;1.50;;
52248;SDS011;38541;48.130;8.378;2023-04-26T13:40:41;1.77;;;1.50;;
52248;SDS011;38541;48.130;8.378;2023-04-26T13:43:08;1.77;;;1.58;;
52248;SDS011;38541;48.130;8.378;2023-04-26T13:45:34;1.60;;;1.50;;
52248;SDS011;38541;48.130;8.378;2023-04-26T13:48:02;1.70;;;1.60;;
52248;SDS011;38541;48.130;8.378;2023-04-26T13:50:28;2.17;;;1.70;;
52248;SDS011;38541;48.130;8.378;2023-04-26T13:52:55;1.73;;;1.63;;
52248;SDS011;38541;48.130;8.378;2023-04-26T13:55:22;1.50;;;1.40;;
52248;SDS011;38541;48.130;8.378;2023-04-26T13:57:48;2.30;;;2.00;;
52248;SDS011;38541;48.130;8.378;2023-04-26T14:00:15;2.92;;;1.70;;
52248;SDS011;38541;48.130;8.378;2023-04-26T14:02:44;2.10;;;1.40;;
52248;SDS011;38541;48.130;8.378;2023-04-26T14:05:11;1.60;;;1.50;;
52248;SDS011;38541;48.130;8.378;2023-04-26T14:07:38;2.70;;;1.60;;
52248;SDS011;38541;48.130;8.378;2023-04-26T14:10:05;3.80;;;1.80;;
52248;SDS011;38541;48.130;8.378;2023-04-26T14:12:32;2.78;;;1.40;;
52248;SDS011;38541;48.130;8.378;2023-04-26T14:14:59;2.00;;;1.73;;
52248;SDS011;38541;48.130;8.378;2023-04-26T14:17:29;1.83;;;1.30;;
52248;SDS011;38541;48.130;8.378;2023-04-26T14:19:57;1.90;;;1.80;;
52248;SDS011;38541;48.130;8.378;2023-04-26T14:22:25;2.80;;;1.60;;
52248;SDS011;38541;48.130;8.378;2023-04-26T14:24:52;2.22;;;1.40;;
52248;SDS011;38541;48.130;8.378;2023-04-26T14:27:18;4.45;;;1.52;;
52248;SDS011;38541;48.130;8.378;2023-04-26T14:29:45;1.45;;;1.35;;
52248;SDS011;38541;48.130;8.378;2023-04-26T14:32:11;2.67;;;1.42;;
52248;SDS011;38541;48.130;8.378;2023-04-26T14:34:38;4.50;;;1.42;;
52248;SDS011;38541;48.130;8.378;2023-04-26T14:37:05;1.40;;;1.30;;
52248;SDS011;38541;48.130;8.378;2023-04-26T14:39:32;3.00;;;1.90;;
52248;SDS011;38541;48.130;8.378;2023-04-26T14:41:58;2.58;;;1.55;;
52248;SDS011;38541;48.130;8.378;2023-04-26T14:44:25;2.08;;;1.73;;
52248;SDS011;38541;48.130;8.378;2023-04-26T14:46:53;3.20;;;1.70;;
52248;SDS011;38541;48.130;8.378;2023-04-26T14:49:19;2.38;;;1.60;;
52248;SDS011;38541;48.130;8.378;2023-04-26T14:51:46;1.50;;;1.40;;
52248;SDS011;38541;48.130;8.378;2023-04-26T14:54:12;1.42;;;1.33;;
52248;SDS011;38541;48.130;8.378;2023-04-26T14:56:40;3.10;;;2.88;;
52248;SDS011;38541;48.130;8.378;2023-04-26T14:59:06;2.03;;;1.45;;
52248;SDS011;38541;48.130;8.378;2023-04-26T15:01:33;3.80;;;1.65;;
52248;SDS011;38541;48.130;8.378;2023-04-26T15:03:59;1.67;;;1.58;;
52248;SDS011;38541;48.130;8.378;2023-04-26T15:06:27;1.33;;;1.20;;
52248;SDS011;38541;48.130;8.378;2023-04-26T15:08:53;2.50;;;1.42;;
52248;SDS011;38541;48.130;8.378;2023-04-26T15:11:20;1.50;;;1.40;;